< Typhoon 199522 1995 Season Typhoon 199601 >
Typhoon 199523 (DAN)
General InformationTrack Information on Google MapsDetailed Wind InformationList of All Images || NewsDisaster Info.ResourceGoogle EarthGE AnimationAtom FeedGeoJSON
Detalied Best Track (Time Zone = UTC)
Year Month Day Hour Lat. Long. Pressure (hPa) Wind (kt) Class Image Chart
1995 12 24 06 7.5 137.5 1006 0 2 Image Chart
1995 12 24 12 7.5 136.0 1006 0 2 Image Chart
1995 12 24 18 7.6 134.5 1006 0 2 Image Chart
1995 12 25 00 7.9 133.0 1006 0 2 Image Chart
1995 12 25 06 8.3 131.7 1004 0 2 Image Chart
1995 12 25 12 8.9 130.8 1004 0 2 Image Chart
1995 12 25 18 9.4 130.4 1002 0 2 Image Chart
1995 12 26 00 9.9 130.3 1000 35 3 Image Chart
1995 12 26 06 10.0 130.4 998 40 3 Image Chart
1995 12 26 12 10.1 130.4 996 40 3 Image Chart
1995 12 26 18 10.3 130.3 994 45 3 Image Chart
1995 12 27 00 10.2 130.1 994 45 3 Image Chart
1995 12 27 06 10.0 129.7 994 45 3 Image Chart
1995 12 27 12 9.8 129.0 992 45 3 Image Chart
1995 12 27 18 9.8 128.2 992 45 3 Image Chart
1995 12 28 00 10.1 127.8 990 50 4 Image Chart
1995 12 28 06 10.5 127.8 985 55 4 Image Chart
1995 12 28 12 11.0 127.9 985 55 4 Image Chart
1995 12 28 18 11.5 128.2 985 55 4 Image Chart
1995 12 29 00 12.1 128.5 985 55 4 Image Chart
1995 12 29 06 12.7 128.8 985 55 4 Image Chart
1995 12 29 12 13.6 129.3 985 55 4 Image Chart
1995 12 29 18 14.7 129.9 985 55 4 Image Chart
1995 12 30 00 15.8 131.0 985 55 4 Image Chart
1995 12 30 06 17.1 132.2 985 55 4 Image Chart
1995 12 30 12 18.5 134.5 990 50 4 Image Chart
1995 12 30 18 19.8 137.4 992 45 3 Image Chart
1995 12 31 00 21.0 141.0 996 40 3 Image Chart
1995 12 31 06 22.0 144.0 1000 0 6 Image Chart
1995 12 31 12 23.0 147.0 1002 0 6 Image Chart
1995 12 31 18 24.0 150.0 1004 0 6 Image Chart
1996 1 1 00 26.0 153.5 1008 0 6 Image Chart
1996 1 1 06 27.0 157.0 1006 0 6 Image Chart
1996 1 1 12 27.5 159.0 1006 0 6 Image Chart
1996 1 1 18 28.0 161.0 1004 0 6 Image Chart
1996 1 2 00 28.5 164.0 1002 0 6 Image Chart
1996 1 2 06 30.0 167.0 1000 0 6 Image Chart
1996 1 2 12 31.0 172.0 1000 0 6 Image Chart
1996 1 2 18 31.5 176.0 994 0 6 Image Chart
1996 1 3 00 33.0 180.0 992 0 6 Image Chart
1996 1 3 06 34.0 183.0 992 0 6 Image Chart
Japan Meteorological Agency Best Track Data | Correction Date : 1996-01-19
< Typhoon 199522 1995 Season Typhoon 199601 >

Help